Time;durP1;ratioP1;P1;durP2;ratioP2;P2;SDS_P1;SDS_P2;PMS_P1;PMS_P2;Temp;Humidity;BMP_temperature;BMP_pressure;BME280_temperature;BME280_humidity;BME280_pressure;Samples;Min_cycle;Max_cycle;Signal;HPM_P1;HPM_P2
2021/01/15 00:03:46;;;;;;;1.60;0.70;;;5.40;99.90;;;;;;20624973;28;20222;-74
2021/01/15 00:13:49;;;;;;;1.60;0.83;;;5.40;99.90;;;;;;20623442;28;20994;-74
2021/01/15 00:23:54;;;;;;;2.30;0.97;;;5.50;99.90;;;;;;20606414;28;20231;-76
2021/01/15 00:33:57;;;;;;;1.73;1.10;;;5.60;99.90;;;;;;20620990;28;20971;-76
2021/01/15 00:44:01;;;;;;;3.10;0.93;;;5.50;99.90;;;;;;20620145;28;20219;-75
2021/01/15 00:54:05;;;;;;;0.37;0.37;;;5.40;99.90;;;;;;20619295;28;20586;-76
2021/01/15 01:04:09;;;;;;;1.90;0.93;;;5.70;99.90;;;;;;20598327;28;20625;-74
2021/01/15 01:14:12;;;;;;;1.27;0.97;;;5.60;99.90;;;;;;20618647;28;20347;-75
2021/01/15 01:24:16;;;;;;;1.57;1.47;;;5.60;99.90;;;;;;20574576;28;20231;-74
2021/01/15 01:34:18;;;;;;;0.40;0.40;;;5.70;99.90;;;;;;20540210;28;20274;-76
2021/01/15 01:44:22;;;;;;;0.40;0.40;;;5.50;99.90;;;;;;20537485;28;20247;-76
2021/01/15 01:54:25;;;;;;;1.53;0.70;;;5.50;99.90;;;;;;20553176;23;20717;-75
2021/01/15 02:04:28;;;;;;;0.60;0.60;;;5.30;99.90;;;;;;20537229;28;20691;-76
2021/01/15 02:14:43;;;;;;;0.77;0.77;;;5.30;99.90;;;;;;20537260;28;20206;-75
2021/01/15 02:25:43;;;;;;;0.83;0.53;;;5.40;99.90;;;;;;20598274;23;20235;-73
2021/01/15 02:35:54;;;;;;;1.13;0.73;;;5.20;99.90;;;;;;20616733;28;20711;-75
2021/01/15 02:45:58;;;;;;;2.27;0.90;;;4.90;99.90;;;;;;20599792;28;21072;-75
2021/01/15 02:56:01;;;;;;;0.87;0.77;;;5.10;99.90;;;;;;20688413;28;20200;-75
2021/01/15 03:06:13;;;;;;;1.37;0.93;;;5.00;99.90;;;;;;20697006;28;20754;-76
2021/01/15 03:16:18;;;;;;;0.30;0.30;;;5.20;99.90;;;;;;20694253;28;20848;-79
2021/01/15 03:26:21;;;;;;;2.83;1.07;;;5.40;99.90;;;;;;20695884;28;20368;-75
2021/01/15 03:36:24;;;;;;;0.23;0.23;;;5.60;99.90;;;;;;20692129;28;20410;-75
2021/01/15 03:46:27;;;;;;;1.03;0.93;;;5.50;99.90;;;;;;20694377;28;20256;-75
2021/01/15 03:56:31;;;;;;;2.00;1.27;;;5.00;99.90;;;;;;20614138;28;20616;-76
2021/01/15 04:06:33;;;;;;;4.57;0.97;;;4.90;99.90;;;;;;20621981;28;20548;-75
2021/01/15 04:16:38;;;;;;;2.43;2.23;;;5.00;99.90;;;;;;20627328;28;20335;-74
2021/01/15 04:26:41;;;;;;;1.67;1.00;;;4.90;99.90;;;;;;20626652;28;20323;-78
2021/01/15 04:36:45;;;;;;;1.10;0.70;;;5.00;99.90;;;;;;20607598;28;20207;-80
2021/01/15 04:57:41;;;;;;;1.07;1.03;;;5.20;99.90;;;;;;20704811;28;20187;-75
2021/01/15 05:08:09;;;;;;;0.93;0.70;;;5.00;99.90;;;;;;20669872;28;20230;-78
2021/01/15 05:18:14;;;;;;;1.47;1.37;;;5.60;99.90;;;;;;20704329;28;20585;-82
2021/01/15 05:28:17;;;;;;;0.70;0.70;;;5.70;99.90;;;;;;20698071;28;20571;-80
2021/01/15 05:38:22;;;;;;;1.57;1.47;;;5.70;99.90;;;;;;20682381;28;20203;-81
2021/01/15 05:48:27;;;;;;;2.73;1.33;;;6.00;99.90;;;;;;20669146;28;20259;-78
2021/01/15 05:58:31;;;;;;;0.20;0.20;;;5.70;99.90;;;;;;20602280;28;20263;-82
2021/01/15 06:08:44;;;;;;;2.40;1.10;;;5.80;99.90;;;;;;20609889;28;20254;-81
2021/01/15 06:18:58;;;;;;;8.23;1.27;;;5.80;99.90;;;;;;20596018;28;20254;-74
2021/01/15 06:29:12;;;;;;;2.47;1.57;;;5.60;99.90;;;;;;20596747;28;20334;-83
2021/01/15 06:39:17;;;;;;;0.83;0.80;;;5.50;99.90;;;;;;20617880;28;20218;-79
2021/01/15 06:49:25;;;;;;;0.80;0.63;;;5.40;99.90;;;;;;20634069;28;20282;-77
2021/01/15 06:59:34;;;;;;;1.17;0.77;;;5.40;99.90;;;;;;20696844;28;20753;-83
2021/01/15 07:09:37;;;;;;;1.27;1.17;;;5.60;99.90;;;;;;20673949;28;20202;-78
2021/01/15 07:19:43;;;;;;;4.53;2.57;;;5.20;99.90;;;;;;20690495;28;20230;-79
2021/01/15 07:29:48;;;;;;;0.77;0.77;;;4.90;99.90;;;;;;20695963;28;20206;-79
2021/01/15 07:40:08;;;;;;;27.77;2.03;;;4.90;99.90;;;;;;20542283;28;20242;-86
2021/01/15 07:50:27;;;;;;;2.00;1.23;;;5.00;99.90;;;;;;20605617;28;20201;-71
2021/01/15 08:00:31;;;;;;;1.93;1.50;;;5.30;99.90;;;;;;20715483;28;20853;-80
2021/01/15 08:10:48;;;;;;;0.50;0.50;;;5.60;99.90;;;;;;20716066;28;20210;-80
2021/01/15 08:20:54;;;;;;;2.90;1.93;;;5.70;99.90;;;;;;20725003;28;20565;-81
2021/01/15 08:31:07;;;;;;;0.70;0.70;;;6.10;99.90;;;;;;20689337;28;20199;-71
2021/01/15 08:41:15;;;;;;;0.97;0.90;;;6.30;99.90;;;;;;20710770;28;20233;-71
2021/01/15 08:51:24;;;;;;;6.10;1.60;;;6.80;99.90;;;;;;20666372;28;20289;-73
2021/01/15 09:01:28;;;;;;;2.50;1.13;;;7.10;99.90;;;;;;20604740;28;20235;-74
2021/01/15 09:11:34;;;;;;;6.23;1.50;;;7.40;99.90;;;;;;20598724;28;20195;-73
2021/01/15 09:21:52;;;;;;;1.53;1.43;;;7.70;99.90;;;;;;20561318;28;20323;-75
2021/01/15 09:31:56;;;;;;;0.90;0.90;;;8.10;99.90;;;;;;20536532;28;20196;-76
2021/01/15 09:42:01;;;;;;;0.90;0.63;;;8.30;99.90;;;;;;20519727;28;20551;-76
2021/01/15 09:52:05;;;;;;;2.13;1.53;;;9.00;99.90;;;;;;20620051;28;20704;-75
2021/01/15 10:02:12;;;;;;;0.80;0.80;;;9.50;99.90;;;;;;20619443;28;20226;-77
2021/01/15 10:12:17;;;;;;;1.90;1.80;;;10.10;99.90;;;;;;20616537;28;20262;-76
2021/01/15 10:22:21;;;;;;;2.03;1.90;;;10.50;99.90;;;;;;20612911;28;20642;-75
2021/01/15 10:32:24;;;;;;;6.30;2.37;;;11.00;99.90;;;;;;20614449;28;21007;-76
2021/01/15 10:42:28;;;;;;;2.50;1.80;;;11.30;99.90;;;;;;20608917;28;20238;-74
2021/01/15 10:52:31;;;;;;;2.33;1.07;;;12.30;99.90;;;;;;20658685;28;20954;-75
2021/01/15 11:02:34;;;;;;;1.50;1.40;;;12.70;99.90;;;;;;20617145;28;20285;-75
2021/01/15 11:12:37;;;;;;;1.63;1.53;;;13.40;99.90;;;;;;20610851;28;20196;-75
2021/01/15 11:22:44;;;;;;;2.13;1.80;;;14.40;99.90;;;;;;20610851;28;20693;-73
2021/01/15 11:32:47;;;;;;;2.30;1.33;;;14.20;99.90;;;;;;20611204;28;20223;-77
2021/01/15 11:42:55;;;;;;;3.40;2.03;;;15.10;99.90;;;;;;20608008;28;20219;-76
2021/01/15 11:52:59;;;;;;;1.73;1.63;;;15.00;99.90;;;;;;20659428;28;20225;-73
2021/01/15 12:03:03;;;;;;;1.20;1.10;;;13.80;99.90;;;;;;20608284;28;20239;-76
2021/01/15 12:13:05;;;;;;;0.90;0.77;;;14.80;99.90;;;;;;20609373;28;20290;-78
2021/01/15 12:23:09;;;;;;;2.83;1.10;;;14.50;99.90;;;;;;20610958;28;20235;-76
2021/01/15 12:33:14;;;;;;;3.73;1.50;;;15.80;99.90;;;;;;20624255;28;20315;-78
2021/01/15 12:43:18;;;;;;;1.63;1.53;;;15.70;99.90;;;;;;20620180;28;20223;-77
2021/01/15 12:53:20;;;;;;;16.07;2.33;;;15.00;99.90;;;;;;20674084;28;20547;-79
2021/01/15 13:03:24;;;;;;;1.80;1.70;;;15.30;99.90;;;;;;20622883;28;20701;-79
2021/01/15 13:13:27;;;;;;;1.83;1.63;;;14.70;99.90;;;;;;20624864;28;20269;-78
2021/01/15 13:23:31;;;;;;;6.13;0.97;;;14.40;99.90;;;;;;20620439;28;20239;-78
2021/01/15 13:33:39;;;;;;;2.10;1.60;;;13.90;99.90;;;;;;20614156;28;20546;-79
2021/01/15 13:43:43;;;;;;;4.60;2.37;;;13.80;99.90;;;;;;20617343;28;20231;-79
2021/01/15 13:53:47;;;;;;;2.27;1.97;;;15.10;99.90;;;;;;20668446;28;20191;-79
2021/01/15 14:03:50;;;;;;;3.83;2.67;;;16.40;99.90;;;;;;20617470;28;20250;-78
2021/01/15 14:13:53;;;;;;;0.63;0.57;;;16.70;99.90;;;;;;20617319;28;20195;-79
2021/01/15 14:23:58;;;;;;;2.83;2.53;;;17.00;99.90;;;;;;20613948;28;20326;-82
2021/01/15 14:34:01;;;;;;;1.87;1.20;;;18.20;99.90;;;;;;20616450;28;20210;-78
2021/01/15 14:44:06;;;;;;;2.07;1.83;;;18.70;99.90;;;;;;20594621;28;20215;-79
2021/01/15 14:54:10;;;;;;;1.80;1.20;;;18.60;99.90;;;;;;20663338;28;20667;-79
2021/01/15 15:04:14;;;;;;;2.90;1.83;;;18.00;99.90;;;;;;20615395;28;20401;-81
2021/01/15 15:14:20;;;;;;;2.00;1.43;;;16.80;99.90;;;;;;20614536;28;20223;-74
2021/01/15 15:24:23;;;;;;;0.83;0.83;;;17.50;99.90;;;;;;20571717;28;20239;-78
2021/01/15 15:34:26;;;;;;;7.10;1.07;;;17.20;99.90;;;;;;20529286;28;20299;-74
2021/01/15 15:44:30;;;;;;;7.17;1.33;;;16.70;99.90;;;;;;20529553;28;20227;-80
2021/01/15 15:54:34;;;;;;;1.13;1.00;;;16.90;99.90;;;;;;20640283;28;20196;-74
2021/01/15 16:04:37;;;;;;;0.30;0.30;;;15.50;99.90;;;;;;20604003;28;20366;-78
2021/01/15 16:14:40;;;;;;;0.57;0.57;;;14.80;99.90;;;;;;20621454;28;20564;-77
2021/01/15 16:24:44;;;;;;;1.70;1.60;;;13.70;99.90;;;;;;20624062;28;20313;-77
2021/01/15 16:34:47;;;;;;;1.43;1.33;;;12.80;99.90;;;;;;20619489;28;20314;-77
2021/01/15 16:44:50;;;;;;;1.43;1.33;;;12.00;99.90;;;;;;20621429;28;20266;-77
2021/01/15 16:54:53;;;;;;;5.47;1.30;;;11.50;99.90;;;;;;20667497;28;20710;-78
2021/01/15 17:04:57;;;;;;;1.20;1.10;;;11.60;99.90;;;;;;20601989;28;20907;-79
2021/01/15 17:15:00;;;;;;;3.20;1.53;;;11.20;99.90;;;;;;20618200;28;20528;-78
2021/01/15 17:25:07;;;;;;;1.70;1.07;;;11.10;99.90;;;;;;20615757;28;20962;-79
2021/01/15 17:35:11;;;;;;;5.73;2.80;;;10.50;99.90;;;;;;20647458;28;20230;-78
2021/01/15 17:45:17;;;;;;;2.77;2.10;;;9.90;99.90;;;;;;20617793;28;20597;-76
2021/01/15 17:55:20;;;;;;;1.60;1.50;;;9.30;99.90;;;;;;20665489;28;20200;-79
2021/01/15 18:05:25;;;;;;;2.43;1.87;;;8.70;99.90;;;;;;20614122;28;20238;-74
2021/01/15 18:15:29;;;;;;;0.97;0.90;;;8.80;99.90;;;;;;20607368;28;20200;-72
2021/01/15 18:25:34;;;;;;;3.23;0.60;;;8.50;99.90;;;;;;20665984;28;20418;-77
2021/01/15 18:35:36;;;;;;;1.77;1.30;;;8.20;99.90;;;;;;20610328;28;20210;-72
2021/01/15 18:45:40;;;;;;;3.13;1.07;;;8.10;99.90;;;;;;20592168;28;20223;-73
2021/01/15 18:55:43;;;;;;;2.07;1.37;;;8.20;99.90;;;;;;20631305;28;20250;-72
2021/01/15 19:05:47;;;;;;;0.63;0.63;;;8.00;99.90;;;;;;20611825;28;20239;-72
2021/01/15 19:15:50;;;;;;;1.47;1.10;;;7.50;99.90;;;;;;20606903;28;20604;-73
2021/01/15 19:25:54;;;;;;;1.10;1.10;;;7.50;99.90;;;;;;20609133;28;20227;-73
2021/01/15 19:35:57;;;;;;;2.70;2.23;;;7.40;99.90;;;;;;20612708;28;20230;-74
2021/01/15 19:46:01;;;;;;;0.40;0.40;;;7.70;99.90;;;;;;20624113;28;20226;-73
2021/01/15 19:56:03;;;;;;;1.33;1.33;;;7.30;99.90;;;;;;20695424;28;20317;-73
2021/01/15 20:06:07;;;;;;;1.83;1.67;;;7.50;99.90;;;;;;20668994;28;20655;-71
2021/01/15 20:16:11;;;;;;;3.73;3.10;;;7.30;99.90;;;;;;20622706;28;20562;-74
2021/01/15 20:26:17;;;;;;;1.93;1.57;;;7.20;99.90;;;;;;20621882;28;20231;-71
2021/01/15 20:36:19;;;;;;;1.33;1.00;;;7.10;99.90;;;;;;20583727;28;20191;-72
2021/01/15 20:46:23;;;;;;;2.30;2.10;;;7.10;99.90;;;;;;20620514;28;20230;-73
2021/01/15 20:56:26;;;;;;;3.07;1.40;;;7.30;99.90;;;;;;20604729;28;20238;-74
2021/01/15 21:06:29;;;;;;;0.87;0.87;;;7.40;99.90;;;;;;20543096;28;20239;-73
2021/01/15 21:16:31;;;;;;;0.73;0.73;;;7.20;99.90;;;;;;20520938;28;20273;-72
2021/01/15 21:26:35;;;;;;;2.27;1.43;;;7.00;99.90;;;;;;20524670;28;20439;-73
2021/01/15 21:36:39;;;;;;;9.07;2.30;;;6.90;99.90;;;;;;20584349;28;20294;-73
2021/01/15 21:46:44;;;;;;;0.50;0.50;;;6.80;99.90;;;;;;20620271;28;20893;-74
2021/01/15 21:56:47;;;;;;;0.80;0.70;;;7.10;99.90;;;;;;20696998;28;20207;-73
2021/01/15 22:06:51;;;;;;;2.93;2.37;;;7.20;99.90;;;;;;20699817;28;20258;-74
2021/01/15 22:16:53;;;;;;;6.27;1.73;;;7.30;99.90;;;;;;20679871;28;20292;-76
2021/01/15 22:26:57;;;;;;;4.30;1.87;;;7.20;99.90;;;;;;20698585;28;20550;-75
2021/01/15 22:37:00;;;;;;;1.17;0.87;;;6.60;99.90;;;;;;20644314;28;20191;-75
2021/01/15 22:47:05;;;;;;;1.80;1.37;;;6.40;99.90;;;;;;20618451;28;21048;-73
2021/01/15 22:57:08;;;;;;;0.37;0.37;;;6.50;99.90;;;;;;20628336;28;20234;-83
2021/01/15 23:07:11;;;;;;;0.73;0.40;;;6.20;99.90;;;;;;20611657;28;20227;-81
2021/01/15 23:17:14;;;;;;;0.83;0.47;;;6.10;99.90;;;;;;20593670;28;20187;-82
2021/01/15 23:27:18;;;;;;;1.57;1.47;;;6.10;99.90;;;;;;20611414;28;20243;-83
2021/01/15 23:37:21;;;;;;;1.30;1.20;;;6.30;99.90;;;;;;20590944;28;20265;-82
2021/01/15 23:47:24;;;;;;;1.70;1.43;;;6.40;99.90;;;;;;20611892;28;20627;-81
2021/01/15 23:57:28;;;;;;;5.60;1.00;;;6.50;99.90;;;;;;20609358;28;20214;-83
